createdAt,value
2023-04-11T00:01:12.495Z,0.60
2023-04-11T00:04:15.053Z,1.85
2023-04-11T00:07:17.113Z,0.98
2023-04-11T00:10:19.963Z,1.35
2023-04-11T00:13:24.071Z,0.20
2023-04-11T00:16:26.814Z,0.10
2023-04-11T00:19:29.091Z,1.23
2023-04-11T00:22:33.614Z,1.00
2023-04-11T00:25:37.376Z,0.68
2023-04-11T00:28:39.261Z,0.73
2023-04-11T00:31:41.182Z,1.50
2023-04-11T00:34:44.470Z,1.25
2023-04-11T00:37:47.104Z,1.33
2023-04-11T00:40:48.966Z,0.93
2023-04-11T00:43:50.902Z,0.63
2023-04-11T00:46:53.554Z,0.50
2023-04-11T00:49:55.728Z,0.70
2023-04-11T00:52:58.142Z,0.98
2023-04-11T00:56:00.624Z,0.75
2023-04-11T00:59:03.033Z,1.03
2023-04-11T01:02:06.093Z,0.95
2023-04-11T01:05:12.693Z,0.63
2023-04-11T01:08:15.567Z,1.02
2023-04-11T01:11:20.279Z,0.80
2023-04-11T01:14:24.125Z,0.73
2023-04-11T01:17:27.239Z,0.90
2023-04-11T01:20:31.784Z,1.63
2023-04-11T01:23:34.426Z,1.33
2023-04-11T01:26:36.402Z,1.08
2023-04-11T01:29:38.784Z,1.17
2023-04-11T01:32:40.859Z,1.17
2023-04-11T01:35:43.575Z,0.60
2023-04-11T01:38:45.541Z,0.70
2023-04-11T01:41:49.108Z,1.23
2023-04-11T01:44:51.677Z,0.70
2023-04-11T01:47:56.580Z,1.00
2023-04-11T01:50:59.153Z,0.70
2023-04-11T01:54:01.015Z,1.45
2023-04-11T01:57:02.953Z,1.30
2023-04-11T02:00:11.026Z,0.40
2023-04-11T02:03:22.550Z,1.27
2023-04-11T02:06:24.504Z,1.00
2023-04-11T02:09:26.343Z,0.35
2023-04-11T02:12:28.339Z,0.80
2023-04-11T02:15:30.376Z,0.40
2023-04-11T02:18:32.781Z,0.90
2023-04-11T02:21:34.719Z,0.70
2023-04-11T02:24:36.682Z,1.02
2023-04-11T02:27:38.585Z,0.82
2023-04-11T02:30:40.861Z,1.17
2023-04-11T02:33:42.815Z,0.80
2023-04-11T02:36:45.948Z,0.90
2023-04-11T02:39:47.909Z,0.80
2023-04-11T02:42:49.842Z,0.77
2023-04-11T02:45:59.084Z,1.03
2023-04-11T02:49:08.641Z,0.80
2023-04-11T02:52:11.509Z,0.77
2023-04-11T02:55:13.440Z,0.68
2023-04-11T02:58:17.867Z,1.08
2023-04-11T03:01:26.332Z,1.13
2023-04-11T03:04:30.830Z,0.70
2023-04-11T03:07:52.707Z,0.40
2023-04-11T03:10:55.276Z,0.65
2023-04-11T03:13:59.481Z,0.63
2023-04-11T03:17:01.424Z,1.83
2023-04-11T03:20:08.218Z,1.73
2023-04-11T03:23:10.768Z,0.80
2023-04-11T03:26:13.127Z,0.73
2023-04-11T03:29:17.178Z,0.50
2023-04-11T03:32:32.622Z,0.80
2023-04-11T03:35:34.728Z,0.82
2023-04-11T03:38:37.098Z,0.75
2023-04-11T03:41:38.980Z,0.55
2023-04-11T03:44:44.174Z,0.85
2023-04-11T03:47:46.645Z,1.23
2023-04-11T03:50:51.370Z,0.93
2023-04-11T03:53:57.871Z,0.70
2023-04-11T03:57:04.700Z,0.82
2023-04-11T04:00:10.837Z,0.80
2023-04-11T04:03:27.960Z,0.30
2023-04-11T04:06:39.217Z,0.65
2023-04-11T04:09:42.749Z,0.55
2023-04-11T04:12:45.342Z,1.13
2023-04-11T04:15:53.445Z,0.68
2023-04-11T04:18:59.780Z,0.40
2023-04-11T04:22:01.836Z,0.88
2023-04-11T04:25:12.733Z,0.15
2023-04-11T04:28:17.860Z,0.47
2023-04-11T04:31:25.603Z,0.80
2023-04-11T04:34:34.852Z,0.67
2023-04-11T04:37:45.445Z,0.28
2023-04-11T04:40:59.090Z,0.55
2023-04-11T04:44:04.577Z,0.90
2023-04-11T04:47:12.515Z,0.25
2023-04-11T04:50:14.725Z,0.60
2023-04-11T04:53:16.871Z,0.75
2023-04-11T04:56:30.529Z,0.70
2023-04-11T04:59:34.115Z,0.17
2023-04-11T05:02:44.509Z,0.47
2023-04-11T05:06:28.739Z,1.03
2023-04-11T05:09:50.760Z,0.50
2023-04-11T05:12:57.536Z,0.50
2023-04-11T05:15:59.594Z,1.77
2023-04-11T05:19:02.100Z,0.30
2023-04-11T05:22:06.057Z,0.70
2023-04-11T05:26:16.239Z,0.85
2023-04-11T05:35:25.608Z,1.35
2023-04-11T05:38:29.934Z,1.23
2023-04-11T05:41:31.809Z,0.40
2023-04-11T05:44:34.506Z,0.82
2023-04-11T05:47:36.671Z,1.80
2023-04-11T05:50:38.795Z,1.27
2023-04-11T05:53:40.623Z,0.30
2023-04-11T05:56:42.550Z,0.50
2023-04-11T05:59:44.594Z,0.90
2023-04-11T06:02:49.166Z,0.73
2023-04-11T06:05:51.335Z,1.45
2023-04-11T06:08:54.173Z,0.90
2023-04-11T06:11:57.563Z,1.17
2023-04-11T06:15:00.150Z,1.15
2023-04-11T06:18:02.057Z,0.28
2023-04-11T06:21:04.171Z,0.40
2023-04-11T06:24:09.878Z,1.65
2023-04-11T06:27:12.000Z,1.07
2023-04-11T06:30:14.769Z,1.02
2023-04-11T06:33:16.803Z,0.32
2023-04-11T06:36:18.755Z,0.85
2023-04-11T06:39:20.914Z,0.82
2023-04-11T06:42:22.807Z,0.90
2023-04-11T06:45:26.935Z,0.30
2023-04-11T06:48:29.094Z,1.13
2023-04-11T06:51:31.407Z,0.68
2023-04-11T06:54:33.302Z,0.70
2023-04-11T06:57:35.286Z,0.70
2023-04-11T07:00:37.202Z,1.00
2023-04-11T07:03:39.295Z,0.70
2023-04-11T07:06:41.690Z,1.13
2023-04-11T07:09:43.762Z,0.63
2023-04-11T07:12:46.166Z,0.60
2023-04-11T07:15:48.516Z,1.20
2023-04-11T07:18:50.754Z,0.90
2023-04-11T07:21:52.656Z,1.02
2023-04-11T07:24:55.398Z,0.65
2023-04-11T07:27:57.822Z,0.33
2023-04-11T07:30:59.975Z,0.50
2023-04-11T07:34:01.875Z,0.65
2023-04-11T07:37:04.041Z,0.70
2023-04-11T07:40:09.908Z,0.85
2023-04-11T07:43:12.151Z,1.50
2023-04-11T07:46:15.116Z,0.47
2023-04-11T07:49:17.331Z,0.22
2023-04-11T07:52:19.798Z,0.40
2023-04-11T07:55:22.015Z,0.20
2023-04-11T07:58:23.931Z,0.27
2023-04-11T08:01:26.979Z,0.68
2023-04-11T08:04:33.705Z,0.50
2023-04-11T08:07:35.952Z,0.77
2023-04-11T08:10:38.208Z,0.45
2023-04-11T08:13:40.167Z,0.20
2023-04-11T08:16:42.468Z,0.70
2023-04-11T08:19:44.408Z,0.60
2023-04-11T08:22:46.927Z,0.47
2023-04-11T08:25:48.889Z,0.65
2023-04-11T08:28:50.762Z,0.73
2023-04-11T08:31:53.533Z,0.60
2023-04-11T08:34:55.585Z,0.50
2023-04-11T08:37:57.418Z,0.43
2023-04-11T08:40:59.393Z,0.30
2023-04-11T08:44:01.348Z,0.30
2023-04-11T08:47:05.818Z,0.50
2023-04-11T08:50:08.633Z,0.57
2023-04-11T08:53:10.981Z,0.40
2023-04-11T08:56:17.127Z,0.45
2023-04-11T08:59:19.331Z,0.30
2023-04-11T09:02:21.760Z,0.28
2023-04-11T09:05:28.817Z,0.25
2023-04-11T09:08:38.295Z,0.75
2023-04-11T09:12:06.344Z,0.70
2023-04-11T09:15:19.280Z,0.53
2023-04-11T09:18:35.421Z,0.45
2023-04-11T09:21:49.392Z,0.45
2023-04-11T09:25:03.680Z,0.52
2023-04-11T09:28:10.338Z,0.45
2023-04-11T09:31:13.159Z,0.57
2023-04-11T09:34:23.659Z,0.40
2023-04-11T09:37:26.362Z,0.75
2023-04-11T09:40:32.424Z,0.77
2023-04-11T09:43:55.691Z,0.45
2023-04-11T09:46:59.864Z,0.53
2023-04-11T09:50:02.384Z,0.30
2023-04-11T09:53:06.640Z,0.28
2023-04-11T09:56:09.308Z,0.77
2023-04-11T09:59:14.963Z,0.60
2023-04-11T10:02:16.953Z,0.80
2023-04-11T10:05:21.214Z,0.60
2023-04-11T10:08:32.833Z,0.30
2023-04-11T10:11:34.902Z,0.40
2023-04-11T10:14:36.826Z,0.40
2023-04-11T10:17:40.756Z,0.70
2023-04-11T10:20:48.318Z,0.85
2023-04-11T10:24:16.578Z,0.40
2023-04-11T10:27:46.541Z,0.40
2023-04-11T10:30:48.582Z,0.73
2023-04-11T10:34:14.512Z,0.40
2023-04-11T10:37:17.864Z,0.38
2023-04-11T10:40:20.824Z,0.22
2023-04-11T10:43:22.927Z,0.55
2023-04-11T10:46:25.828Z,0.80
2023-04-11T10:49:38.841Z,0.37
2023-04-11T10:52:41.725Z,0.70
2023-04-11T10:55:48.921Z,0.40
2023-04-11T10:58:51.902Z,0.32
2023-04-11T11:01:58.452Z,0.35
2023-04-11T11:05:02.238Z,0.20
2023-04-11T11:08:04.293Z,0.40
2023-04-11T11:11:08.462Z,0.40
2023-04-11T11:14:10.448Z,0.30
2023-04-11T11:17:13.935Z,0.50
2023-04-11T11:20:19.703Z,0.63
2023-04-11T11:23:21.559Z,0.65
2023-04-11T11:26:34.857Z,0.70
2023-04-11T11:29:38.026Z,0.40
2023-04-11T11:32:40.083Z,0.30
2023-04-11T11:35:45.074Z,0.37
2023-04-11T11:38:47.172Z,0.68
2023-04-11T11:41:49.561Z,0.32
2023-04-11T11:44:51.482Z,0.80
2023-04-11T11:47:53.464Z,0.40
2023-04-11T11:50:57.635Z,0.50
2023-04-11T11:54:10.533Z,0.38
2023-04-11T11:57:12.665Z,0.30
2023-04-11T12:00:23.426Z,0.30
2023-04-11T12:03:29.847Z,0.52
2023-04-11T12:06:32.463Z,0.60
2023-04-11T12:09:34.390Z,0.60
2023-04-11T12:12:39.040Z,0.28
2023-04-11T12:15:43.381Z,0.50
2023-04-11T12:33:31.552Z,0.68
2023-04-11T12:36:36.896Z,0.22
2023-04-11T12:39:39.312Z,0.30
2023-04-11T12:42:53.329Z,0.40
2023-04-11T12:45:57.546Z,0.95
2023-04-11T12:48:59.806Z,0.50
2023-04-11T12:52:01.782Z,0.70
2023-04-11T12:55:04.627Z,0.80
2023-04-11T12:58:09.446Z,0.50
2023-04-11T13:01:11.394Z,1.02
2023-04-11T13:04:13.598Z,0.75
2023-04-11T13:07:15.573Z,0.88
2023-04-11T13:10:17.698Z,0.85
2023-04-11T13:13:19.638Z,1.00
2023-04-11T13:16:21.608Z,0.43
2023-04-11T13:19:23.746Z,0.65
2023-04-11T13:22:26.393Z,0.50
2023-04-11T13:25:28.401Z,0.43
2023-04-11T13:28:30.438Z,0.50
2023-04-11T13:31:32.982Z,1.17
2023-04-11T13:34:35.847Z,0.57
2023-04-11T13:37:37.783Z,0.75
2023-04-11T13:40:41.271Z,1.60
2023-04-11T13:43:43.253Z,0.90
2023-04-11T13:46:45.181Z,0.60
2023-04-11T13:49:47.178Z,1.30
2023-04-11T13:52:49.306Z,1.00
2023-04-11T13:55:51.404Z,0.75
2023-04-11T13:58:53.414Z,0.60
2023-04-11T14:01:55.595Z,0.45
2023-04-11T14:04:58.237Z,0.70
2023-04-11T14:08:00.145Z,0.40
2023-04-11T14:11:02.310Z,0.45
2023-04-11T14:14:05.308Z,0.90
2023-04-11T14:17:07.265Z,0.75
2023-04-11T14:20:11.678Z,1.33
2023-04-11T14:23:16.553Z,0.47
2023-04-11T14:26:18.531Z,1.80
2023-04-11T14:29:22.414Z,0.97
2023-04-11T14:32:25.559Z,0.90
2023-04-11T14:35:27.508Z,1.27
2023-04-11T14:38:29.529Z,1.13
2023-04-11T14:41:31.534Z,0.32
2023-04-11T14:44:33.468Z,0.87
2023-04-11T14:47:35.444Z,0.57
2023-04-11T14:50:37.653Z,0.70
2023-04-11T14:53:39.584Z,1.20
2023-04-11T14:56:41.650Z,0.75
2023-04-11T14:59:46.432Z,0.73
2023-04-11T15:02:56.363Z,0.98
2023-04-11T15:05:58.457Z,0.55
2023-04-11T15:09:00.637Z,1.08
2023-04-11T15:12:02.591Z,0.75
2023-04-11T15:15:05.315Z,2.40
2023-04-11T15:18:20.910Z,0.98
2023-04-11T15:21:22.861Z,1.25
2023-04-11T15:24:24.729Z,1.90
2023-04-11T15:27:26.594Z,0.80
2023-04-11T15:30:29.167Z,1.00
2023-04-11T15:33:31.959Z,1.02
2023-04-11T15:36:34.243Z,1.38
2023-04-11T15:39:36.145Z,1.05
2023-04-11T15:42:38.323Z,0.93
2023-04-11T15:45:40.577Z,0.70
2023-04-11T15:48:42.993Z,2.30
2023-04-11T15:51:46.572Z,3.08
2023-04-11T15:54:48.438Z,2.58
2023-04-11T15:57:50.909Z,1.30
2023-04-11T16:00:54.881Z,1.07
2023-04-11T16:03:57.593Z,1.58
2023-04-11T16:06:59.851Z,1.48
2023-04-11T16:10:41.812Z,1.05
2023-04-11T16:14:45.764Z,1.45
2023-04-11T16:18:47.739Z,1.40
2023-04-11T16:22:09.562Z,1.08
2023-04-11T16:25:11.904Z,0.65
2023-04-11T16:28:14.240Z,1.48
2023-04-11T16:31:21.924Z,1.30
2023-04-11T16:34:24.126Z,1.53
2023-04-11T16:37:26.170Z,1.83
2023-04-11T16:40:31.737Z,1.13
2023-04-11T16:43:33.680Z,1.33
2023-04-11T16:46:35.675Z,1.13
2023-04-11T16:49:37.866Z,1.30
2023-04-11T16:52:40.510Z,1.05
2023-04-11T16:55:42.359Z,1.40
2023-04-11T16:58:44.318Z,1.95
2023-04-11T17:01:46.890Z,1.83
2023-04-11T17:04:48.995Z,1.40
2023-04-11T17:07:51.382Z,1.90
2023-04-11T17:10:53.677Z,1.02
2023-04-11T17:13:56.431Z,1.40
2023-04-11T17:18:34.141Z,1.63
2023-04-11T17:53:13.297Z,1.90
2023-04-11T17:56:15.640Z,3.67
2023-04-11T17:59:17.710Z,2.78
2023-04-11T18:02:20.041Z,2.65
2023-04-11T18:05:25.786Z,2.80
2023-04-11T18:08:46.849Z,2.87
2023-04-11T18:11:50.088Z,3.05
2023-04-11T18:14:54.242Z,3.53
2023-04-11T18:17:56.722Z,2.83
2023-04-11T18:21:41.861Z,3.13
2023-04-11T18:25:43.538Z,3.30
2023-04-11T18:29:47.057Z,2.70
2023-04-11T18:33:48.762Z,2.33
2023-04-11T18:37:51.028Z,2.63
2023-04-11T18:41:12.805Z,3.53
2023-04-11T18:44:14.676Z,3.17
2023-04-11T18:47:17.495Z,2.80
2023-04-11T18:50:20.234Z,3.60
2023-04-11T18:53:22.455Z,3.70
2023-04-11T18:56:24.639Z,3.72
2023-04-11T18:59:29.178Z,3.53
2023-04-11T19:02:32.338Z,3.00
2023-04-11T19:05:35.058Z,3.30
2023-04-11T19:08:37.388Z,3.72
2023-04-11T19:11:39.373Z,2.80
2023-04-11T19:14:41.631Z,3.33
2023-04-11T19:17:43.780Z,2.13
2023-04-11T19:20:46.068Z,2.42
2023-04-11T19:23:49.141Z,2.33
2023-04-11T19:26:52.767Z,2.20
2023-04-11T19:29:55.112Z,1.90
2023-04-11T19:32:58.694Z,1.77
2023-04-11T19:36:00.986Z,1.10
2023-04-11T19:39:03.313Z,0.80
2023-04-11T19:42:08.698Z,0.80
2023-04-11T19:45:11.717Z,0.93
2023-04-11T19:48:15.818Z,0.40
2023-04-11T19:51:18.830Z,0.40
2023-04-11T19:54:21.272Z,0.32
2023-04-11T19:57:25.617Z,0.45
2023-04-11T20:00:31.968Z,0.60
2023-04-11T20:03:34.574Z,1.20
2023-04-11T20:06:37.006Z,0.65
2023-04-11T20:09:39.597Z,0.20
2023-04-11T20:12:41.977Z,0.60
2023-04-11T20:15:44.367Z,0.67
2023-04-11T20:18:46.939Z,0.30
2023-04-11T20:21:49.211Z,0.10
2023-04-11T20:24:52.063Z,0.25
2023-04-11T20:27:54.252Z,0.43
2023-04-11T20:30:56.755Z,0.20
2023-04-11T20:33:58.891Z,0.40
2023-04-11T20:37:01.302Z,0.30
2023-04-11T20:40:07.453Z,0.20
2023-04-11T20:43:10.105Z,0.28
2023-04-11T20:46:13.687Z,0.20
2023-04-11T20:49:18.795Z,0.25
2023-04-11T20:52:22.095Z,0.30
2023-04-11T20:55:25.154Z,0.40
2023-04-11T20:58:27.490Z,0.63
2023-04-11T21:01:32.964Z,0.77
2023-04-11T21:04:35.037Z,0.20
2023-04-11T21:07:37.260Z,0.28
2023-04-11T21:10:39.513Z,0.50
2023-04-11T21:13:41.810Z,0.25
2023-04-11T21:16:43.735Z,0.40
2023-04-11T21:19:45.685Z,0.30
2023-04-11T21:22:48.355Z,0.65
2023-04-11T21:25:50.314Z,0.30
2023-04-11T21:28:52.320Z,0.50
2023-04-11T21:31:54.567Z,0.23
2023-04-11T21:34:56.510Z,0.32
2023-04-11T21:37:58.536Z,0.35
2023-04-11T21:41:00.438Z,0.55
2023-04-11T21:44:02.381Z,0.30
2023-04-11T21:47:04.632Z,0.60
2023-04-11T21:50:07.524Z,0.22
2023-04-11T21:53:09.461Z,0.22
2023-04-11T21:56:11.640Z,0.32
2023-04-11T21:59:13.611Z,0.40
2023-04-11T22:02:16.009Z,0.83
2023-04-11T22:05:18.417Z,0.65
2023-04-11T22:08:22.350Z,0.30
2023-04-11T22:11:24.993Z,0.50
2023-04-11T22:14:29.203Z,0.30
2023-04-11T22:17:32.540Z,0.30
2023-04-11T22:20:40.707Z,0.30
2023-04-11T22:23:43.031Z,0.50
2023-04-11T22:26:46.567Z,0.40
2023-04-11T22:29:49.343Z,0.40
2023-04-11T22:32:52.244Z,0.30
2023-04-11T22:35:54.583Z,0.20
2023-04-11T22:38:56.514Z,0.40
2023-04-11T22:41:58.636Z,0.28
2023-04-11T22:45:00.489Z,0.30
2023-04-11T22:48:04.370Z,0.50
2023-04-11T22:51:06.863Z,0.28
2023-04-11T22:54:09.659Z,0.68
2023-04-11T22:57:11.644Z,0.50
2023-04-11T23:00:16.463Z,0.25
2023-04-11T23:03:19.782Z,0.50
2023-04-11T23:06:21.948Z,0.60
2023-04-11T23:09:23.909Z,0.60
2023-04-11T23:12:27.604Z,0.52
2023-04-11T23:15:30.355Z,0.22
2023-04-11T23:18:32.372Z,0.77
2023-04-11T23:21:34.349Z,1.33
2023-04-11T23:24:36.655Z,0.22
2023-04-11T23:27:39.280Z,0.70
2023-04-11T23:30:41.724Z,0.20
2023-04-11T23:33:44.166Z,0.10
2023-04-11T23:36:46.090Z,0.60
2023-04-11T23:39:48.125Z,0.40
2023-04-11T23:42:50.217Z,0.40
2023-04-11T23:45:53.235Z,0.20
2023-04-11T23:48:55.310Z,0.10
2023-04-11T23:51:57.486Z,0.20
2023-04-11T23:54:59.526Z,0.20
2023-04-11T23:58:01.510Z,0.20
